Esquina - Secu Tirs — 2DOU6 — position and weather

sailwx.info

Track history (hours):
 
Tides and Currents Weather Stations Pressure Air Temp Water Temp Dewpoint Dewpoint Depression Visibility Wind Speed Wind Dir Waves Ship Positions

Esquina - Secu Tirs

Last reported at 2018-Apr-19 15:11 UTC. Time now 2018-Apr-21 08:00 UTC.
Position N 47°45' W 003°21'.

Type: Other ship. MMSI: 235080801.

Date/timePositionNaut miles runAvg speedWind from/ knotsBaromVisibWave heightAir tempDewpointWater temp
2018-Apr-19 15:11N 47°45' W 003°21'0 0.1
2018-Apr-19 15:00N 47°45' W 003°21'1 2.5
2018-Apr-19 14:30N 47°44' W 003°22'5 9.2
2018-Apr-19 14:00N 47°40' W 003°18'1 2.9
2018-Apr-19 13:30N 47°40' W 003°16'0 0.7
2018-Apr-19 13:00N 47°39' W 003°16'1 1.8
2018-Apr-19 12:30N 47°39' W 003°17'0 0.7
2018-Apr-19 11:59N 47°38' W 003°17'0 0.2
2018-Apr-19 11:31N 47°38' W 003°17'1 2.8
2018-Apr-19 11:00N 47°37' W 003°17'2 2.9
2018-Apr-19 10:28N 47°37' W 003°15'0 0.9
2018-Apr-19 10:00N 47°37' W 003°15'0 0.3
2018-Apr-19 09:29N 47°38' W 003°15'0 0.3
2018-Apr-19 08:59N 47°38' W 003°15'0 0.3
2018-Apr-19 08:14N 47°38' W 003°15'0 0.5
2018-Apr-19 07:59N 47°38' W 003°15'0 0.5
2018-Apr-19 07:29N 47°38' W 003°14'1 1.1
2018-Apr-19 07:01N 47°38' W 003°14'2 4.2
2018-Apr-19 06:30N 47°40' W 003°16'2 4.4
2018-Apr-19 06:00N 47°40' W 003°19'4 8.2
2018-Apr-19 05:28N 47°45' W 003°21'0 0.0
2018-Apr-19 04:58N 47°45' W 003°21'0 0.0
2018-Apr-18 11:42N 47°45' W 003°21'0 1.0
2018-Apr-18 11:28N 47°45' W 003°21'2 4.1
2018-Apr-18 11:01N 47°43' W 003°22'4 7.1
2018-Apr-18 10:31N 47°39' W 003°21'2 4.8
2018-Apr-18 10:00N 47°37' W 003°20'2 4.8
2018-Apr-18 09:30N 47°35' W 003°19'4 8.3
2018-Apr-18 09:01N 47°31' W 003°17'2 3.7
2018-Apr-18 08:30N 47°32' W 003°19'5 9.2
2018-Apr-18 07:59N 47°36' W 003°23'2 4.5
2018-Apr-18 07:28N 47°36' W 003°20'2 3.5
2018-Apr-18 06:53N 47°35' W 003°23'2 5.4
2018-Apr-18 06:28N 47°36' W 003°20'0 0.3
2018-Apr-18 06:00N 47°36' W 003°20'1 2.3
2018-Apr-18 05:31N 47°37' W 003°20'1 2.0
2018-Apr-18 05:00N 47°38' W 003°21'3 6.2
2018-Apr-18 04:30N 47°41' W 003°22'3 6.2
2018-Apr-18 04:00N 47°44' W 003°21'1 0.1
2018-Apr-17 13:26N 47°45' W 003°21'1 2.0
2018-Apr-17 13:00N 47°44' W 003°21'510.2
2018-Apr-17 12:30N 47°40' W 003°16'3 6.8
2018-Apr-17 12:00N 47°37' W 003°19'0 0.4
2018-Apr-17 11:30N 47°37' W 003°19'3 5.2
2018-Apr-17 11:00N 47°40' W 003°20'3 6.0
2018-Apr-17 10:28N 47°43' W 003°21'0 0.0
2018-Apr-17 09:58N 47°43' W 003°21'0 0.0
2018-Apr-17 09:28N 47°43' W 003°21'2 4.2
2018-Apr-17 08:59N 47°41' W 003°22'510.4
2018-Apr-17 08:30N 47°39' W 003°15'0 0.9
2018-Apr-17 08:00N 47°39' W 003°14'0 0.3
2018-Apr-17 07:30N 47°39' W 003°14'1 1.3
2018-Apr-17 07:00N 47°38' W 003°15'1 1.1
2018-Apr-17 06:30N 47°39' W 003°15'2 3.1
2018-Apr-17 06:00N 47°40' W 003°16'4 8.9
2018-Apr-17 05:30N 47°42' W 003°22'  
2018-Apr-13 10:33N 47°45' W 003°21'0 1.2
2018-Apr-13 10:30N 47°45' W 003°21'510.9
2018-Apr-13 10:00N 47°40' W 003°17'4 7.5
2018-Apr-13 09:30N 47°36' W 003°18'2 4.0
2018-Apr-13 09:00N 47°38' W 003°16'1 2.9
2018-Apr-13 08:30N 47°37' W 003°16'1 2.7
2018-Apr-13 07:59N 47°38' W 003°15'1 2.3
2018-Apr-13 07:30N 47°38' W 003°16'1 2.2
2018-Apr-13 07:00N 47°39' W 003°16'1 1.3
2018-Apr-13 06:30N 47°38' W 003°16'510.5
2018-Apr-13 06:00N 47°41' W 003°22'4 8.1
2018-Apr-13 05:30N 47°45' W 003°21'0 0.0
2018-Apr-12 08:22N 47°45' W 003°21'1 1.8
2018-Apr-12 08:00N 47°44' W 003°21'4 7.2
2018-Apr-12 07:30N 47°41' W 003°22'2 4.2
2018-Apr-12 06:59N 47°39' W 003°21'6 0.3
2018-Apr-11 08:16N 47°45' W 003°21'0 0.7
2018-Apr-11 07:58N 47°45' W 003°21'2 4.1
2018-Apr-11 07:30N 47°43' W 003°22'3 6.0
2018-Apr-11 07:00N 47°40' W 003°22'3 5.3
2018-Apr-11 06:30N 47°37' W 003°20'0 0.0
2018-Apr-11 06:00N 47°37' W 003°20'1 1.8
2018-Apr-11 05:30N 47°38' W 003°21'3 6.5
2018-Apr-11 05:00N 47°41' W 003°22'3 6.5
2018-Apr-11 04:30N 47°44' W 003°21'0 0.2
2018-Apr-11 04:00N 47°45' W 003°21'0 0.0
2018-Apr-10 14:01N 47°45' W 003°21'0 0.0
2018-Apr-10 13:58N 47°45' W 003°21'0 0.0
2018-Apr-10 13:28N 47°45' W 003°21'0 0.0
2018-Apr-10 12:58N 47°45' W 003°21'0 0.0
2018-Apr-10 12:28N 47°45' W 003°21'0 0.0
2018-Apr-10 11:58N 47°45' W 003°21'  
Track history (hours):
 
Tides and Currents Weather Stations Pressure Air Temp Water Temp Dewpoint Dewpoint Depression Visibility Wind Speed Wind Dir Waves Ship Positions

Esquina - Secu Tirs

Last reported at 2018-Apr-19 15:11 UTC. Time now 2018-Apr-21 08:00 UTC.
Position N 47°45' W 003°21'.

Type: Other ship. MMSI: 235080801.

Date/timePositionNaut miles runAvg speedWind from/ knotsBaromVisibWave heightAir tempDewpointWater temp
2018-Apr-19 15:11N 47°45' W 003°21'0 0.1
2018-Apr-19 15:00N 47°45' W 003°21'1 2.5
2018-Apr-19 14:30N 47°44' W 003°22'5 9.2
2018-Apr-19 14:00N 47°40' W 003°18'1 2.9
2018-Apr-19 13:30N 47°40' W 003°16'0 0.7
2018-Apr-19 13:00N 47°39' W 003°16'1 1.8
2018-Apr-19 12:30N 47°39' W 003°17'0 0.7
2018-Apr-19 11:59N 47°38' W 003°17'0 0.2
2018-Apr-19 11:31N 47°38' W 003°17'1 2.8
2018-Apr-19 11:00N 47°37' W 003°17'2 2.9
2018-Apr-19 10:28N 47°37' W 003°15'0 0.9
2018-Apr-19 10:00N 47°37' W 003°15'0 0.3
2018-Apr-19 09:29N 47°38' W 003°15'0 0.3
2018-Apr-19 08:59N 47°38' W 003°15'0 0.3
2018-Apr-19 08:14N 47°38' W 003°15'0 0.5
2018-Apr-19 07:59N 47°38' W 003°15'0 0.5
2018-Apr-19 07:29N 47°38' W 003°14'1 1.1
2018-Apr-19 07:01N 47°38' W 003°14'2 4.2
2018-Apr-19 06:30N 47°40' W 003°16'2 4.4
2018-Apr-19 06:00N 47°40' W 003°19'4 8.2
2018-Apr-19 05:28N 47°45' W 003°21'0 0.0
2018-Apr-19 04:58N 47°45' W 003°21'0 0.0
2018-Apr-18 11:42N 47°45' W 003°21'0 1.0
2018-Apr-18 11:28N 47°45' W 003°21'2 4.1
2018-Apr-18 11:01N 47°43' W 003°22'4 7.1
2018-Apr-18 10:31N 47°39' W 003°21'2 4.8
2018-Apr-18 10:00N 47°37' W 003°20'2 4.8
2018-Apr-18 09:30N 47°35' W 003°19'4 8.3
2018-Apr-18 09:01N 47°31' W 003°17'2 3.7
2018-Apr-18 08:30N 47°32' W 003°19'5 9.2
2018-Apr-18 07:59N 47°36' W 003°23'2 4.5
2018-Apr-18 07:28N 47°36' W 003°20'2 3.5
2018-Apr-18 06:53N 47°35' W 003°23'2 5.4
2018-Apr-18 06:28N 47°36' W 003°20'0 0.3
2018-Apr-18 06:00N 47°36' W 003°20'1 2.3
2018-Apr-18 05:31N 47°37' W 003°20'1 2.0
2018-Apr-18 05:00N 47°38' W 003°21'3 6.2
2018-Apr-18 04:30N 47°41' W 003°22'3 6.2
2018-Apr-18 04:00N 47°44' W 003°21'1 0.1
2018-Apr-17 13:26N 47°45' W 003°21'1 2.0
2018-Apr-17 13:00N 47°44' W 003°21'510.2
2018-Apr-17 12:30N 47°40' W 003°16'3 6.8
2018-Apr-17 12:00N 47°37' W 003°19'0 0.4
2018-Apr-17 11:30N 47°37' W 003°19'3 5.2
2018-Apr-17 11:00N 47°40' W 003°20'3 6.0
2018-Apr-17 10:28N 47°43' W 003°21'0 0.0
2018-Apr-17 09:58N 47°43' W 003°21'0 0.0
2018-Apr-17 09:28N 47°43' W 003°21'2 4.2
2018-Apr-17 08:59N 47°41' W 003°22'510.4
2018-Apr-17 08:30N 47°39' W 003°15'0 0.9
2018-Apr-17 08:00N 47°39' W 003°14'0 0.3
2018-Apr-17 07:30N 47°39' W 003°14'1 1.3
2018-Apr-17 07:00N 47°38' W 003°15'1 1.1
2018-Apr-17 06:30N 47°39' W 003°15'2 3.1
2018-Apr-17 06:00N 47°40' W 003°16'4 8.9
2018-Apr-17 05:30N 47°42' W 003°22'  
2018-Apr-13 10:33N 47°45' W 003°21'0 1.2
2018-Apr-13 10:30N 47°45' W 003°21'510.9
2018-Apr-13 10:00N 47°40' W 003°17'4 7.5
2018-Apr-13 09:30N 47°36' W 003°18'2 4.0
2018-Apr-13 09:00N 47°38' W 003°16'1 2.9
2018-Apr-13 08:30N 47°37' W 003°16'1 2.7
2018-Apr-13 07:59N 47°38' W 003°15'1 2.3
2018-Apr-13 07:30N 47°38' W 003°16'1 2.2
2018-Apr-13 07:00N 47°39' W 003°16'1 1.3
2018-Apr-13 06:30N 47°38' W 003°16'510.5
2018-Apr-13 06:00N 47°41' W 003°22'4 8.1
2018-Apr-13 05:30N 47°45' W 003°21'0 0.0
2018-Apr-12 08:22N 47°45' W 003°21'1 1.8
2018-Apr-12 08:00N 47°44' W 003°21'4 7.2
2018-Apr-12 07:30N 47°41' W 003°22'2 4.2
2018-Apr-12 06:59N 47°39' W 003°21'6 0.3
2018-Apr-11 08:16N 47°45' W 003°21'0 0.7
2018-Apr-11 07:58N 47°45' W 003°21'2 4.1
2018-Apr-11 07:30N 47°43' W 003°22'3 6.0
2018-Apr-11 07:00N 47°40' W 003°22'3 5.3
2018-Apr-11 06:30N 47°37' W 003°20'0 0.0
2018-Apr-11 06:00N 47°37' W 003°20'1 1.8
2018-Apr-11 05:30N 47°38' W 003°21'3 6.5
2018-Apr-11 05:00N 47°41' W 003°22'3 6.5
2018-Apr-11 04:30N 47°44' W 003°21'0 0.2
2018-Apr-11 04:00N 47°45' W 003°21'0 0.0
2018-Apr-10 14:01N 47°45' W 003°21'0 0.0
2018-Apr-10 13:58N 47°45' W 003°21'0 0.0
2018-Apr-10 13:28N 47°45' W 003°21'0 0.0
2018-Apr-10 12:58N 47°45' W 003°21'0 0.0
2018-Apr-10 12:28N 47°45' W 003°21'0 0.0
2018-Apr-10 11:58N 47°45' W 003°21'  

Dump ship's entire track history